sensor_id;sensor_type;location;lat;lon;timestamp;temperature;humidity
42227;DHT22;27892;52.378;13.122;2024-02-14T00:02:21;6.60;76.40
42227;DHT22;27892;52.378;13.122;2024-02-14T00:04:47;6.60;76.80
42227;DHT22;27892;52.378;13.122;2024-02-14T00:07:15;6.60;77.00
42227;DHT22;27892;52.378;13.122;2024-02-14T00:09:40;6.60;77.10
42227;DHT22;27892;52.378;13.122;2024-02-14T00:12:06;6.60;77.10
42227;DHT22;27892;52.378;13.122;2024-02-14T00:14:32;6.60;76.70
42227;DHT22;27892;52.378;13.122;2024-02-14T00:16:58;6.60;76.60
42227;DHT22;27892;52.378;13.122;2024-02-14T00:19:24;6.60;76.80
42227;DHT22;27892;52.378;13.122;2024-02-14T00:21:50;6.60;76.70
42227;DHT22;27892;52.378;13.122;2024-02-14T00:24:16;6.60;76.50
42227;DHT22;27892;52.378;13.122;2024-02-14T00:26:45;6.60;77.30
42227;DHT22;27892;52.378;13.122;2024-02-14T00:29:11;6.60;76.70
42227;DHT22;27892;52.378;13.122;2024-02-14T00:31:37;6.60;76.70
42227;DHT22;27892;52.378;13.122;2024-02-14T00:34:03;6.70;76.90
42227;DHT22;27892;52.378;13.122;2024-02-14T00:36:30;6.70;76.70
42227;DHT22;27892;52.378;13.122;2024-02-14T00:38:55;6.70;76.50
42227;DHT22;27892;52.378;13.122;2024-02-14T00:41:21;6.70;76.50
42227;DHT22;27892;52.378;13.122;2024-02-14T00:43:47;6.70;76.50
42227;DHT22;27892;52.378;13.122;2024-02-14T00:46:18;6.70;76.30
42227;DHT22;27892;52.378;13.122;2024-02-14T00:48:44;6.70;76.00
42227;DHT22;27892;52.378;13.122;2024-02-14T00:51:10;6.60;75.80
42227;DHT22;27892;52.378;13.122;2024-02-14T00:53:36;6.50;75.80
42227;DHT22;27892;52.378;13.122;2024-02-14T00:56:02;6.50;76.60
42227;DHT22;27892;52.378;13.122;2024-02-14T00:58:28;6.50;76.40
42227;DHT22;27892;52.378;13.122;2024-02-14T01:00:53;6.50;76.30
42227;DHT22;27892;52.378;13.122;2024-02-14T01:03:19;6.40;76.60
42227;DHT22;27892;52.378;13.122;2024-02-14T01:05:45;6.40;76.70
42227;DHT22;27892;52.378;13.122;2024-02-14T01:08:10;6.50;76.90
42227;DHT22;27892;52.378;13.122;2024-02-14T01:10:36;6.50;76.80
42227;DHT22;27892;52.378;13.122;2024-02-14T01:13:02;6.50;76.60
42227;DHT22;27892;52.378;13.122;2024-02-14T01:15:27;6.50;76.80
42227;DHT22;27892;52.378;13.122;2024-02-14T01:17:53;6.50;76.80
42227;DHT22;27892;52.378;13.122;2024-02-14T01:20:19;6.50;77.00
42227;DHT22;27892;52.378;13.122;2024-02-14T01:22:45;6.50;77.00
42227;DHT22;27892;52.378;13.122;2024-02-14T01:25:12;6.50;78.10
42227;DHT22;27892;52.378;13.122;2024-02-14T01:27:38;6.50;77.50
42227;DHT22;27892;52.378;13.122;2024-02-14T01:30:04;6.60;77.90
42227;DHT22;27892;52.378;13.122;2024-02-14T01:32:31;6.60;77.70
42227;DHT22;27892;52.378;13.122;2024-02-14T01:34:57;6.70;77.60
42227;DHT22;27892;52.378;13.122;2024-02-14T01:37:23;6.80;77.40
42227;DHT22;27892;52.378;13.122;2024-02-14T01:39:48;6.80;77.10
42227;DHT22;27892;52.378;13.122;2024-02-14T01:42:14;6.90;77.40
42227;DHT22;27892;52.378;13.122;2024-02-14T01:44:40;6.90;77.20
42227;DHT22;27892;52.378;13.122;2024-02-14T01:47:05;6.90;77.00
42227;DHT22;27892;52.378;13.122;2024-02-14T01:49:33;6.80;76.90
42227;DHT22;27892;52.378;13.122;2024-02-14T01:52:02;6.80;76.50
42227;DHT22;27892;52.378;13.122;2024-02-14T01:54:29;6.70;76.40
42227;DHT22;27892;52.378;13.122;2024-02-14T01:56:56;6.70;76.90
42227;DHT22;27892;52.378;13.122;2024-02-14T01:59:23;6.70;77.20
42227;DHT22;27892;52.378;13.122;2024-02-14T02:01:50;6.70;77.10
42227;DHT22;27892;52.378;13.122;2024-02-14T02:04:17;6.60;77.20
42227;DHT22;27892;52.378;13.122;2024-02-14T02:06:44;6.60;77.50
42227;DHT22;27892;52.378;13.122;2024-02-14T02:09:09;6.60;77.70
42227;DHT22;27892;52.378;13.122;2024-02-14T02:11:52;6.60;77.90
42227;DHT22;27892;52.378;13.122;2024-02-14T02:14:21;6.70;78.10
42227;DHT22;27892;52.378;13.122;2024-02-14T02:16:47;6.60;77.60
42227;DHT22;27892;52.378;13.122;2024-02-14T02:19:13;6.60;78.20
42227;DHT22;27892;52.378;13.122;2024-02-14T02:21:42;6.60;78.30
42227;DHT22;27892;52.378;13.122;2024-02-14T02:24:11;6.70;78.70
42227;DHT22;27892;52.378;13.122;2024-02-14T02:26:37;6.70;78.10
42227;DHT22;27892;52.378;13.122;2024-02-14T02:29:03;6.70;78.30
42227;DHT22;27892;52.378;13.122;2024-02-14T02:31:30;6.70;78.30
42227;DHT22;27892;52.378;13.122;2024-02-14T02:33:56;6.80;78.40
42227;DHT22;27892;52.378;13.122;2024-02-14T02:36:21;6.80;78.30
42227;DHT22;27892;52.378;13.122;2024-02-14T02:38:50;6.90;77.70
42227;DHT22;27892;52.378;13.122;2024-02-14T02:41:15;6.80;78.40
42227;DHT22;27892;52.378;13.122;2024-02-14T02:43:42;6.80;77.70
42227;DHT22;27892;52.378;13.122;2024-02-14T02:46:09;6.70;77.60
42227;DHT22;27892;52.378;13.122;2024-02-14T02:48:35;6.70;77.40
42227;DHT22;27892;52.378;13.122;2024-02-14T02:51:01;6.70;78.10
42227;DHT22;27892;52.378;13.122;2024-02-14T02:53:27;6.60;77.90
42227;DHT22;27892;52.378;13.122;2024-02-14T02:55:52;6.60;78.30
42227;DHT22;27892;52.378;13.122;2024-02-14T02:58:20;6.70;78.30
42227;DHT22;27892;52.378;13.122;2024-02-14T03:00:46;6.60;78.20
42227;DHT22;27892;52.378;13.122;2024-02-14T03:03:15;6.70;78.30
42227;DHT22;27892;52.378;13.122;2024-02-14T03:05:42;6.70;78.20
42227;DHT22;27892;52.378;13.122;2024-02-14T03:08:10;6.70;78.30
42227;DHT22;27892;52.378;13.122;2024-02-14T03:10:39;6.70;78.70
42227;DHT22;27892;52.378;13.122;2024-02-14T03:13:06;6.80;78.70
42227;DHT22;27892;52.378;13.122;2024-02-14T03:15:34;6.80;78.50
42227;DHT22;27892;52.378;13.122;2024-02-14T03:18:01;6.90;78.90
42227;DHT22;27892;52.378;13.122;2024-02-14T03:20:26;6.90;78.30
42227;DHT22;27892;52.378;13.122;2024-02-14T03:22:54;6.90;78.10
42227;DHT22;27892;52.378;13.122;2024-02-14T03:25:20;7.00;77.90
42227;DHT22;27892;52.378;13.122;2024-02-14T03:27:46;7.00;77.80
42227;DHT22;27892;52.378;13.122;2024-02-14T03:30:18;6.90;77.80
42227;DHT22;27892;52.378;13.122;2024-02-14T03:32:44;6.90;77.70
42227;DHT22;27892;52.378;13.122;2024-02-14T03:35:11;6.90;77.70
42227;DHT22;27892;52.378;13.122;2024-02-14T03:37:39;6.80;77.50
42227;DHT22;27892;52.378;13.122;2024-02-14T03:40:05;6.90;78.10
42227;DHT22;27892;52.378;13.122;2024-02-14T03:42:33;6.90;78.60
42227;DHT22;27892;52.378;13.122;2024-02-14T03:44:58;7.00;78.50
42227;DHT22;27892;52.378;13.122;2024-02-14T03:47:31;7.10;78.00
42227;DHT22;27892;52.378;13.122;2024-02-14T03:49:58;7.10;77.80
42227;DHT22;27892;52.378;13.122;2024-02-14T03:52:23;7.20;77.90
42227;DHT22;27892;52.378;13.122;2024-02-14T03:54:50;7.30;77.50
42227;DHT22;27892;52.378;13.122;2024-02-14T03:57:19;7.40;76.50
42227;DHT22;27892;52.378;13.122;2024-02-14T03:59:45;7.40;76.60
42227;DHT22;27892;52.378;13.122;2024-02-14T04:02:11;7.30;75.70
42227;DHT22;27892;52.378;13.122;2024-02-14T04:04:37;7.30;76.20
42227;DHT22;27892;52.378;13.122;2024-02-14T04:07:05;7.20;76.10
42227;DHT22;27892;52.378;13.122;2024-02-14T04:09:33;7.10;76.70
42227;DHT22;27892;52.378;13.122;2024-02-14T04:11:58;7.10;77.60
42227;DHT22;27892;52.378;13.122;2024-02-14T04:14:24;7.10;76.70
42227;DHT22;27892;52.378;13.122;2024-02-14T04:16:50;7.10;76.90
42227;DHT22;27892;52.378;13.122;2024-02-14T04:19:16;7.10;77.20
42227;DHT22;27892;52.378;13.122;2024-02-14T04:21:43;7.10;77.10
42227;DHT22;27892;52.378;13.122;2024-02-14T04:24:09;7.10;76.90
42227;DHT22;27892;52.378;13.122;2024-02-14T04:26:35;7.20;77.70
42227;DHT22;27892;52.378;13.122;2024-02-14T04:29:01;7.20;77.60
42227;DHT22;27892;52.378;13.122;2024-02-14T04:31:26;7.20;77.60
42227;DHT22;27892;52.378;13.122;2024-02-14T04:33:52;7.30;77.20
42227;DHT22;27892;52.378;13.122;2024-02-14T04:36:20;7.30;77.60
42227;DHT22;27892;52.378;13.122;2024-02-14T04:38:47;7.40;77.40
42227;DHT22;27892;52.378;13.122;2024-02-14T04:41:13;7.40;77.00
42227;DHT22;27892;52.378;13.122;2024-02-14T04:43:40;7.40;77.40
42227;DHT22;27892;52.378;13.122;2024-02-14T04:46:05;7.50;77.70
42227;DHT22;27892;52.378;13.122;2024-02-14T04:48:36;7.50;77.40
42227;DHT22;27892;52.378;13.122;2024-02-14T04:51:02;7.60;76.90
42227;DHT22;27892;52.378;13.122;2024-02-14T04:53:28;7.60;76.80
42227;DHT22;27892;52.378;13.122;2024-02-14T04:55:54;7.70;76.70
42227;DHT22;27892;52.378;13.122;2024-02-14T04:58:20;7.70;76.50
42227;DHT22;27892;52.378;13.122;2024-02-14T05:00:46;7.60;76.00
42227;DHT22;27892;52.378;13.122;2024-02-14T05:03:11;7.60;76.40
42227;DHT22;27892;52.378;13.122;2024-02-14T05:05:38;7.60;76.00
42227;DHT22;27892;52.378;13.122;2024-02-14T05:08:04;7.50;76.90
42227;DHT22;27892;52.378;13.122;2024-02-14T05:10:31;7.60;76.70
42227;DHT22;27892;52.378;13.122;2024-02-14T05:12:57;7.60;76.50
42227;DHT22;27892;52.378;13.122;2024-02-14T05:15:23;7.60;76.10
42227;DHT22;27892;52.378;13.122;2024-02-14T05:17:49;7.60;76.10
42227;DHT22;27892;52.378;13.122;2024-02-14T05:20:15;7.60;76.30
42227;DHT22;27892;52.378;13.122;2024-02-14T05:22:41;7.50;76.80
42227;DHT22;27892;52.378;13.122;2024-02-14T05:25:08;7.60;76.50
42227;DHT22;27892;52.378;13.122;2024-02-14T05:27:35;7.60;76.60
42227;DHT22;27892;52.378;13.122;2024-02-14T05:30:01;7.60;76.90
42227;DHT22;27892;52.378;13.122;2024-02-14T05:32:33;7.60;76.90
42227;DHT22;27892;52.378;13.122;2024-02-14T05:34:59;7.60;76.30
42227;DHT22;27892;52.378;13.122;2024-02-14T05:37:25;7.50;76.40
42227;DHT22;27892;52.378;13.122;2024-02-14T05:39:53;7.50;76.50
42227;DHT22;27892;52.378;13.122;2024-02-14T05:42:20;7.40;76.60
42227;DHT22;27892;52.378;13.122;2024-02-14T05:44:46;7.40;76.70
42227;DHT22;27892;52.378;13.122;2024-02-14T05:47:12;7.40;77.10
42227;DHT22;27892;52.378;13.122;2024-02-14T05:49:41;7.40;77.10
42227;DHT22;27892;52.378;13.122;2024-02-14T05:52:07;7.50;77.10
42227;DHT22;27892;52.378;13.122;2024-02-14T05:54:33;7.50;77.80
42227;DHT22;27892;52.378;13.122;2024-02-14T05:56:59;7.50;77.30
42227;DHT22;27892;52.378;13.122;2024-02-14T05:59:25;7.50;77.40
42227;DHT22;27892;52.378;13.122;2024-02-14T06:01:51;7.60;77.20
42227;DHT22;27892;52.378;13.122;2024-02-14T06:04:16;7.60;76.90
42227;DHT22;27892;52.378;13.122;2024-02-14T06:06:42;7.60;77.00
42227;DHT22;27892;52.378;13.122;2024-02-14T06:09:08;7.70;76.90
42227;DHT22;27892;52.378;13.122;2024-02-14T06:11:37;7.60;76.50
42227;DHT22;27892;52.378;13.122;2024-02-14T06:14:08;7.60;76.90
42227;DHT22;27892;52.378;13.122;2024-02-14T06:16:34;7.70;76.80
42227;DHT22;27892;52.378;13.122;2024-02-14T06:19:00;7.70;77.00
42227;DHT22;27892;52.378;13.122;2024-02-14T06:21:26;7.80;77.20
42227;DHT22;27892;52.378;13.122;2024-02-14T06:23:53;7.80;76.50
42227;DHT22;27892;52.378;13.122;2024-02-14T06:26:19;7.80;76.40
42227;DHT22;27892;52.378;13.122;2024-02-14T06:28:45;7.90;76.00
42227;DHT22;27892;52.378;13.122;2024-02-14T06:31:11;7.80;75.80
42227;DHT22;27892;52.378;13.122;2024-02-14T06:33:36;7.80;76.20
42227;DHT22;27892;52.378;13.122;2024-02-14T06:36:03;7.90;76.30
42227;DHT22;27892;52.378;13.122;2024-02-14T06:38:29;7.90;76.20
42227;DHT22;27892;52.378;13.122;2024-02-14T06:40:56;7.90;76.20
42227;DHT22;27892;52.378;13.122;2024-02-14T06:43:22;8.00;76.30
42227;DHT22;27892;52.378;13.122;2024-02-14T06:45:47;7.90;76.30
42227;DHT22;27892;52.378;13.122;2024-02-14T06:48:13;8.00;76.20
42227;DHT22;27892;52.378;13.122;2024-02-14T06:50:39;8.20;76.20
42227;DHT22;27892;52.378;13.122;2024-02-14T06:53:05;8.30;75.80
42227;DHT22;27892;52.378;13.122;2024-02-14T06:55:33;8.30;75.30
42227;DHT22;27892;52.378;13.122;2024-02-14T06:57:59;8.30;75.50
42227;DHT22;27892;52.378;13.122;2024-02-14T07:00:25;8.40;75.50
42227;DHT22;27892;52.378;13.122;2024-02-14T07:02:51;8.50;75.10
42227;DHT22;27892;52.378;13.122;2024-02-14T07:05:17;8.60;74.80
42227;DHT22;27892;52.378;13.122;2024-02-14T07:07:42;8.60;74.10
42227;DHT22;27892;52.378;13.122;2024-02-14T07:10:08;8.60;74.20
42227;DHT22;27892;52.378;13.122;2024-02-14T07:12:34;8.50;73.80
42227;DHT22;27892;52.378;13.122;2024-02-14T07:15:02;8.50;74.20
42227;DHT22;27892;52.378;13.122;2024-02-14T07:17:30;8.60;74.40
42227;DHT22;27892;52.378;13.122;2024-02-14T07:19:55;8.60;74.70
42227;DHT22;27892;52.378;13.122;2024-02-14T07:22:21;8.70;74.60
42227;DHT22;27892;52.378;13.122;2024-02-14T07:24:47;8.70;74.30
42227;DHT22;27892;52.378;13.122;2024-02-14T07:27:14;8.80;74.10
42227;DHT22;27892;52.378;13.122;2024-02-14T07:29:40;8.90;74.40
42227;DHT22;27892;52.378;13.122;2024-02-14T07:32:06;9.00;74.10
42227;DHT22;27892;52.378;13.122;2024-02-14T07:34:32;9.10;73.60
42227;DHT22;27892;52.378;13.122;2024-02-14T07:36:58;9.20;73.40
42227;DHT22;27892;52.378;13.122;2024-02-14T07:39:24;9.30;73.30
42227;DHT22;27892;52.378;13.122;2024-02-14T07:41:50;9.30;73.10
42227;DHT22;27892;52.378;13.122;2024-02-14T07:44:17;9.40;72.70
42227;DHT22;27892;52.378;13.122;2024-02-14T07:46:42;9.40;72.50
42227;DHT22;27892;52.378;13.122;2024-02-14T07:49:08;9.50;72.40
42227;DHT22;27892;52.378;13.122;2024-02-14T07:51:35;9.50;71.90
42227;DHT22;27892;52.378;13.122;2024-02-14T07:54:06;9.60;72.00
42227;DHT22;27892;52.378;13.122;2024-02-14T07:56:32;9.60;71.60
42227;DHT22;27892;52.378;13.122;2024-02-14T07:58:58;9.70;71.40
42227;DHT22;27892;52.378;13.122;2024-02-14T08:01:26;9.70;71.10
42227;DHT22;27892;52.378;13.122;2024-02-14T08:03:51;9.70;70.80
42227;DHT22;27892;52.378;13.122;2024-02-14T08:06:17;9.70;71.00
42227;DHT22;27892;52.378;13.122;2024-02-14T08:08:43;9.80;70.70
42227;DHT22;27892;52.378;13.122;2024-02-14T08:11:11;9.80;70.60
42227;DHT22;27892;52.378;13.122;2024-02-14T08:13:37;9.90;70.90
42227;DHT22;27892;52.378;13.122;2024-02-14T08:16:06;9.90;71.10
42227;DHT22;27892;52.378;13.122;2024-02-14T08:18:32;9.90;71.10
42227;DHT22;27892;52.378;13.122;2024-02-14T08:20:58;9.80;72.10
42227;DHT22;27892;52.378;13.122;2024-02-14T08:23:23;9.80;72.70
42227;DHT22;27892;52.378;13.122;2024-02-14T08:25:49;9.80;73.40
42227;DHT22;27892;52.378;13.122;2024-02-14T08:28:15;9.90;73.80
42227;DHT22;27892;52.378;13.122;2024-02-14T08:30:43;10.00;72.80
42227;DHT22;27892;52.378;13.122;2024-02-14T08:33:09;10.00;73.20
42227;DHT22;27892;52.378;13.122;2024-02-14T08:35:36;10.10;72.90
42227;DHT22;27892;52.378;13.122;2024-02-14T08:38:02;10.20;73.00
42227;DHT22;27892;52.378;13.122;2024-02-14T08:40:27;10.20;72.80
42227;DHT22;27892;52.378;13.122;2024-02-14T08:42:53;10.20;73.20
42227;DHT22;27892;52.378;13.122;2024-02-14T08:45:19;10.30;73.60
42227;DHT22;27892;52.378;13.122;2024-02-14T08:47:45;10.50;74.00
42227;DHT22;27892;52.378;13.122;2024-02-14T08:50:10;10.60;73.70
42227;DHT22;27892;52.378;13.122;2024-02-14T08:52:39;10.70;73.00
42227;DHT22;27892;52.378;13.122;2024-02-14T08:55:05;10.70;72.90
42227;DHT22;27892;52.378;13.122;2024-02-14T08:57:33;10.80;73.00
42227;DHT22;27892;52.378;13.122;2024-02-14T08:59:59;10.80;72.90
42227;DHT22;27892;52.378;13.122;2024-02-14T09:02:26;10.70;72.90
42227;DHT22;27892;52.378;13.122;2024-02-14T09:04:51;10.70;73.60
42227;DHT22;27892;52.378;13.122;2024-02-14T09:07:19;10.60;73.30
42227;DHT22;27892;52.378;13.122;2024-02-14T09:09:45;10.50;73.80
42227;DHT22;27892;52.378;13.122;2024-02-14T09:12:11;10.40;74.30
42227;DHT22;27892;52.378;13.122;2024-02-14T09:14:37;10.40;75.40
42227;DHT22;27892;52.378;13.122;2024-02-14T09:17:02;10.30;75.90
42227;DHT22;27892;52.378;13.122;2024-02-14T09:19:28;10.30;76.40
42227;DHT22;27892;52.378;13.122;2024-02-14T09:21:55;10.30;77.20
42227;DHT22;27892;52.378;13.122;2024-02-14T09:24:21;10.20;77.80
42227;DHT22;27892;52.378;13.122;2024-02-14T09:26:46;10.30;78.60
42227;DHT22;27892;52.378;13.122;2024-02-14T09:29:12;10.30;79.10
42227;DHT22;27892;52.378;13.122;2024-02-14T09:31:38;10.30;78.70
42227;DHT22;27892;52.378;13.122;2024-02-14T09:34:03;10.30;79.80
42227;DHT22;27892;52.378;13.122;2024-02-14T09:36:29;10.40;80.40
42227;DHT22;27892;52.378;13.122;2024-02-14T09:38:55;10.30;80.40
42227;DHT22;27892;52.378;13.122;2024-02-14T09:41:36;10.30;80.70
42227;DHT22;27892;52.378;13.122;2024-02-14T09:44:03;10.30;81.40
42227;DHT22;27892;52.378;13.122;2024-02-14T09:46:29;10.20;81.80
42227;DHT22;27892;52.378;13.122;2024-02-14T09:48:58;10.20;82.70
42227;DHT22;27892;52.378;13.122;2024-02-14T09:51:28;10.20;83.80
42227;DHT22;27892;52.378;13.122;2024-02-14T09:53:55;10.30;85.10
42227;DHT22;27892;52.378;13.122;2024-02-14T09:56:21;10.40;84.80
42227;DHT22;27892;52.378;13.122;2024-02-14T09:58:50;10.50;85.60
42227;DHT22;27892;52.378;13.122;2024-02-14T10:01:25;10.50;85.80
42227;DHT22;27892;52.378;13.122;2024-02-14T10:03:51;10.60;86.30
42227;DHT22;27892;52.378;13.122;2024-02-14T10:06:17;10.60;86.60
42227;DHT22;27892;52.378;13.122;2024-02-14T10:08:46;10.70;87.30
42227;DHT22;27892;52.378;13.122;2024-02-14T10:11:13;10.70;87.40
42227;DHT22;27892;52.378;13.122;2024-02-14T10:13:41;10.80;87.20
42227;DHT22;27892;52.378;13.122;2024-02-14T10:16:07;10.80;87.20
42227;DHT22;27892;52.378;13.122;2024-02-14T10:18:34;10.90;88.50
42227;DHT22;27892;52.378;13.122;2024-02-14T10:21:00;10.90;89.10
42227;DHT22;27892;52.378;13.122;2024-02-14T10:23:27;11.10;89.20
42227;DHT22;27892;52.378;13.122;2024-02-14T10:25:53;11.20;89.40
42227;DHT22;27892;52.378;13.122;2024-02-14T10:28:21;11.20;89.00
42227;DHT22;27892;52.378;13.122;2024-02-14T10:30:47;11.20;89.70
42227;DHT22;27892;52.378;13.122;2024-02-14T10:33:18;11.30;89.60
42227;DHT22;27892;52.378;13.122;2024-02-14T10:35:47;11.30;90.10
42227;DHT22;27892;52.378;13.122;2024-02-14T10:38:16;11.30;90.00
42227;DHT22;27892;52.378;13.122;2024-02-14T10:40:46;11.40;90.10
42227;DHT22;27892;52.378;13.122;2024-02-14T10:43:12;11.40;90.40
42227;DHT22;27892;52.378;13.122;2024-02-14T10:45:38;11.40;90.40
42227;DHT22;27892;52.378;13.122;2024-02-14T10:48:05;11.30;89.50
42227;DHT22;27892;52.378;13.122;2024-02-14T10:50:34;11.30;90.70
42227;DHT22;27892;52.378;13.122;2024-02-14T10:53:04;11.40;90.60
42227;DHT22;27892;52.378;13.122;2024-02-14T10:55:33;11.50;91.20
42227;DHT22;27892;52.378;13.122;2024-02-14T10:57:59;11.60;90.80
42227;DHT22;27892;52.378;13.122;2024-02-14T11:00:26;11.60;90.70
42227;DHT22;27892;52.378;13.122;2024-02-14T11:02:52;11.60;90.60
42227;DHT22;27892;52.378;13.122;2024-02-14T11:05:19;11.70;90.90
42227;DHT22;27892;52.378;13.122;2024-02-14T11:07:49;11.90;91.10
42227;DHT22;27892;52.378;13.122;2024-02-14T11:10:19;12.00;90.20
42227;DHT22;27892;52.378;13.122;2024-02-14T11:12:46;12.00;90.50
42227;DHT22;27892;52.378;13.122;2024-02-14T11:15:20;12.00;90.60
42227;DHT22;27892;52.378;13.122;2024-02-14T11:17:48;12.00;90.10
42227;DHT22;27892;52.378;13.122;2024-02-14T11:20:30;12.00;90.10
42227;DHT22;27892;52.378;13.122;2024-02-14T11:22:57;11.90;90.30
42227;DHT22;27892;52.378;13.122;2024-02-14T11:25:34;11.90;90.60
42227;DHT22;27892;52.378;13.122;2024-02-14T11:28:18;12.10;91.10
42227;DHT22;27892;52.378;13.122;2024-02-14T11:30:47;12.10;90.40
42227;DHT22;27892;52.378;13.122;2024-02-14T11:33:18;12.10;90.70
42227;DHT22;27892;52.378;13.122;2024-02-14T11:35:46;12.20;90.40
42227;DHT22;27892;52.378;13.122;2024-02-14T11:38:13;12.20;89.90
42227;DHT22;27892;52.378;13.122;2024-02-14T11:40:39;12.20;90.10
42227;DHT22;27892;52.378;13.122;2024-02-14T11:43:11;12.10;90.20
42227;DHT22;27892;52.378;13.122;2024-02-14T11:45:37;12.10;90.50
42227;DHT22;27892;52.378;13.122;2024-02-14T11:48:13;12.10;90.30
42227;DHT22;27892;52.378;13.122;2024-02-14T11:50:40;12.10;90.70
42227;DHT22;27892;52.378;13.122;2024-02-14T11:53:07;12.20;91.20
42227;DHT22;27892;52.378;13.122;2024-02-14T11:55:36;12.20;91.20
42227;DHT22;27892;52.378;13.122;2024-02-14T11:58:06;12.30;91.30
42227;DHT22;27892;52.378;13.122;2024-02-14T12:00:33;12.40;91.70
42227;DHT22;27892;52.378;13.122;2024-02-14T12:03:01;12.50;91.60
42227;DHT22;27892;52.378;13.122;2024-02-14T12:05:27;12.60;91.50
42227;DHT22;27892;52.378;13.122;2024-02-14T12:07:53;12.80;91.80
42227;DHT22;27892;52.378;13.122;2024-02-14T12:10:19;12.90;90.70
42227;DHT22;27892;52.378;13.122;2024-02-14T12:12:47;12.90;91.00
42227;DHT22;27892;52.378;13.122;2024-02-14T12:15:13;13.00;91.00
42227;DHT22;27892;52.378;13.122;2024-02-14T12:17:41;13.00;90.60
42227;DHT22;27892;52.378;13.122;2024-02-14T12:20:11;13.00;90.80
42227;DHT22;27892;52.378;13.122;2024-02-14T12:22:40;13.00;90.40
42227;DHT22;27892;52.378;13.122;2024-02-14T12:25:07;13.00;90.70
42227;DHT22;27892;52.378;13.122;2024-02-14T12:27:36;13.00;90.70
42227;DHT22;27892;52.378;13.122;2024-02-14T12:30:08;13.00;90.50
42227;DHT22;27892;52.378;13.122;2024-02-14T12:32:35;13.00;90.30
42227;DHT22;27892;52.378;13.122;2024-02-14T12:35:01;13.00;90.90
42227;DHT22;27892;52.378;13.122;2024-02-14T12:37:27;13.10;91.00
42227;DHT22;27892;52.378;13.122;2024-02-14T12:39:52;13.10;90.50
42227;DHT22;27892;52.378;13.122;2024-02-14T12:42:19;13.20;90.10
42227;DHT22;27892;52.378;13.122;2024-02-14T12:44:51;13.20;90.40
42227;DHT22;27892;52.378;13.122;2024-02-14T12:47:18;13.30;90.30
42227;DHT22;27892;52.378;13.122;2024-02-14T12:49:44;13.20;89.70
42227;DHT22;27892;52.378;13.122;2024-02-14T12:52:10;13.30;90.00
42227;DHT22;27892;52.378;13.122;2024-02-14T12:54:36;13.40;90.70
42227;DHT22;27892;52.378;13.122;2024-02-14T12:57:02;13.50;90.20
42227;DHT22;27892;52.378;13.122;2024-02-14T12:59:28;13.40;89.40
42227;DHT22;27892;52.378;13.122;2024-02-14T13:01:53;13.40;90.30
42227;DHT22;27892;52.378;13.122;2024-02-14T13:04:19;13.40;90.60
42227;DHT22;27892;52.378;13.122;2024-02-14T13:06:45;13.40;90.40
42227;DHT22;27892;52.378;13.122;2024-02-14T13:09:13;13.40;90.30
42227;DHT22;27892;52.378;13.122;2024-02-14T13:11:40;13.30;90.50
42227;DHT22;27892;52.378;13.122;2024-02-14T13:14:08;13.30;90.70
42227;DHT22;27892;52.378;13.122;2024-02-14T13:16:34;13.30;90.90
42227;DHT22;27892;52.378;13.122;2024-02-14T13:19:00;13.30;90.80
42227;DHT22;27892;52.378;13.122;2024-02-14T13:21:28;13.20;90.90
42227;DHT22;27892;52.378;13.122;2024-02-14T13:23:54;13.20;91.10
42227;DHT22;27892;52.378;13.122;2024-02-14T13:26:23;13.10;91.50
42227;DHT22;27892;52.378;13.122;2024-02-14T13:28:49;13.10;91.70
42227;DHT22;27892;52.378;13.122;2024-02-14T13:31:15;13.00;92.10
42227;DHT22;27892;52.378;13.122;2024-02-14T13:33:41;13.10;92.40
42227;DHT22;27892;52.378;13.122;2024-02-14T13:36:07;13.10;92.80
42227;DHT22;27892;52.378;13.122;2024-02-14T13:38:32;13.20;93.20
42227;DHT22;27892;52.378;13.122;2024-02-14T13:40:58;13.40;93.20
42227;DHT22;27892;52.378;13.122;2024-02-14T13:43:25;13.50;93.10
42227;DHT22;27892;52.378;13.122;2024-02-14T13:45:50;13.50;93.10
42227;DHT22;27892;52.378;13.122;2024-02-14T13:48:16;13.60;93.10
42227;DHT22;27892;52.378;13.122;2024-02-14T13:50:42;13.80;92.90
42227;DHT22;27892;52.378;13.122;2024-02-14T13:53:08;13.80;92.10
42227;DHT22;27892;52.378;13.122;2024-02-14T13:55:34;13.80;91.80
42227;DHT22;27892;52.378;13.122;2024-02-14T13:58:00;13.80;92.40
42227;DHT22;27892;52.378;13.122;2024-02-14T14:00:25;13.80;92.20
42227;DHT22;27892;52.378;13.122;2024-02-14T14:02:51;13.80;92.00
42227;DHT22;27892;52.378;13.122;2024-02-14T14:05:17;13.70;91.80
42227;DHT22;27892;52.378;13.122;2024-02-14T14:07:42;13.70;92.10
42227;DHT22;27892;52.378;13.122;2024-02-14T14:10:09;13.70;92.20
42227;DHT22;27892;52.378;13.122;2024-02-14T14:12:34;13.60;92.10
42227;DHT22;27892;52.378;13.122;2024-02-14T14:15:01;13.60;92.40
42227;DHT22;27892;52.378;13.122;2024-02-14T14:17:27;13.70;92.70
42227;DHT22;27892;52.378;13.122;2024-02-14T14:19:53;13.70;92.50
42227;DHT22;27892;52.378;13.122;2024-02-14T14:22:19;13.80;92.70
42227;DHT22;27892;52.378;13.122;2024-02-14T14:24:45;13.70;92.40
42227;DHT22;27892;52.378;13.122;2024-02-14T14:27:11;13.70;92.20
42227;DHT22;27892;52.378;13.122;2024-02-14T14:29:40;13.80;92.70
42227;DHT22;27892;52.378;13.122;2024-02-14T14:32:10;13.80;92.20
42227;DHT22;27892;52.378;13.122;2024-02-14T14:34:36;13.80;92.30
42227;DHT22;27892;52.378;13.122;2024-02-14T14:37:04;13.90;92.20
42227;DHT22;27892;52.378;13.122;2024-02-14T14:39:31;13.90;92.50
42227;DHT22;27892;52.378;13.122;2024-02-14T14:41:57;14.10;92.70
42227;DHT22;27892;52.378;13.122;2024-02-14T14:44:27;14.20;92.40
42227;DHT22;27892;52.378;13.122;2024-02-14T14:46:56;14.40;92.50
42227;DHT22;27892;52.378;13.122;2024-02-14T14:49:21;14.60;91.90
42227;DHT22;27892;52.378;13.122;2024-02-14T14:51:47;14.70;91.60
42227;DHT22;27892;52.378;13.122;2024-02-14T14:54:13;14.80;91.30
42227;DHT22;27892;52.378;13.122;2024-02-14T14:56:39;14.80;90.60
42227;DHT22;27892;52.378;13.122;2024-02-14T14:59:04;14.80;90.60
42227;DHT22;27892;52.378;13.122;2024-02-14T15:01:34;14.80;90.20
42227;DHT22;27892;52.378;13.122;2024-02-14T15:04:00;14.80;90.10
42227;DHT22;27892;52.378;13.122;2024-02-14T15:06:29;14.80;89.80
42227;DHT22;27892;52.378;13.122;2024-02-14T15:08:55;14.70;90.00
42227;DHT22;27892;52.378;13.122;2024-02-14T15:11:21;14.60;89.40
42227;DHT22;27892;52.378;13.122;2024-02-14T15:13:47;14.60;90.10
42227;DHT22;27892;52.378;13.122;2024-02-14T15:16:13;14.50;89.60
42227;DHT22;27892;52.378;13.122;2024-02-14T15:18:40;14.40;90.00
42227;DHT22;27892;52.378;13.122;2024-02-14T15:21:09;14.40;90.10
42227;DHT22;27892;52.378;13.122;2024-02-14T15:23:36;14.30;90.00